Time;durP1;ratioP1;P1;durP2;ratioP2;P2;SDS_P1;SDS_P2;PMS_P1;PMS_P2;Temp;Humidity;BMP_temperature;BMP_pressure;BME280_temperature;BME280_humidity;BME280_pressure;Samples;Min_cycle;Max_cycle;Signal;HPM_P1;HPM_P2
2023/03/01 00:01:21;;;;;;;26.25;18.92;;;-0.10;1.00;;;;;;5054367;28;20021;-52
2023/03/01 00:03:47;;;;;;;28.33;18.65;;;-0.10;1.00;;;;;;5054463;28;20380;-50
2023/03/01 00:06:13;;;;;;;24.92;17.55;;;-0.20;1.00;;;;;;5054140;28;20025;-53
2023/03/01 00:08:39;;;;;;;29.40;18.75;;;-0.20;1.00;;;;;;5054158;28;20025;-51
2023/03/01 00:11:16;;;;;;;27.35;18.13;;;-0.20;1.00;;;;;;5052907;28;20660;-50
2023/03/01 00:13:43;;;;;;;30.52;19.40;;;-0.20;1.00;;;;;;5052815;28;20039;-53
2023/03/01 00:16:15;;;;;;;25.60;18.10;;;-0.20;1.00;;;;;;5053673;28;20032;-50
2023/03/01 00:22:03;;;;;;;32.05;20.30;;;-0.30;1.00;;;;;;5054329;28;20052;-51
2023/03/01 00:24:29;;;;;;;29.42;19.40;;;-0.30;1.00;;;;;;5053798;28;20049;-52
2023/03/01 00:26:58;;;;;;;34.28;19.65;;;-0.30;1.00;;;;;;5053822;28;20036;-49
2023/03/01 00:29:25;;;;;;;23.35;16.33;;;-0.20;1.00;;;;;;5053775;28;20025;-53
2023/03/01 00:31:51;;;;;;;25.88;16.40;;;-0.30;1.00;;;;;;5053942;28;20029;-51
2023/03/01 00:34:17;;;;;;;30.42;18.23;;;-0.30;1.00;;;;;;5053398;28;20032;-51
2023/03/01 00:36:42;;;;;;;29.15;17.48;;;-0.30;1.00;;;;;;5053686;28;20025;-52
2023/03/01 00:39:14;;;;;;;26.45;17.08;;;-0.40;1.00;;;;;;5053696;28;20067;-51
2023/03/01 00:41:40;;;;;;;25.75;17.58;;;-0.40;1.00;;;;;;5053625;28;20021;-53
2023/03/01 00:44:06;;;;;;;29.55;18.15;;;-0.40;1.00;;;;;;5053747;28;20045;-52
2023/03/01 00:46:32;;;;;;;34.45;18.10;;;-0.40;1.00;;;;;;5053385;28;20057;-50
2023/03/01 00:48:58;;;;;;;26.90;18.65;;;-0.40;1.00;;;;;;5053366;28;20063;-51
2023/03/01 00:51:26;;;;;;;26.67;18.17;;;-0.40;1.00;;;;;;5053341;28;20384;-52
2023/03/01 00:53:53;;;;;;;31.52;19.33;;;-0.40;1.00;;;;;;5053269;28;20539;-50
2023/03/01 00:56:19;;;;;;;26.52;17.15;;;-0.50;1.00;;;;;;5051886;28;20060;-50
2023/03/01 00:58:45;;;;;;;32.53;19.38;;;-0.50;1.00;;;;;;5053339;28;20492;-50
2023/03/01 01:01:17;;;;;;;32.55;18.48;;;-0.50;1.00;;;;;;5053272;28;20027;-52
2023/03/01 01:03:51;;;;;;;29.67;18.23;;;-0.60;1.00;;;;;;5051572;28;20021;-50
2023/03/01 01:06:20;;;;;;;31.17;18.52;;;-0.60;1.00;;;;;;5053008;28;20071;-50
2023/03/01 01:08:46;;;;;;;27.38;17.88;;;-0.60;1.00;;;;;;5053137;28;20464;-51
2023/03/01 01:11:12;;;;;;;29.13;18.85;;;-0.60;1.00;;;;;;5053076;28;20028;-49
2023/03/01 01:13:39;;;;;;;32.20;18.20;;;-0.60;1.00;;;;;;5052920;28;20025;-54
2023/03/01 01:16:05;;;;;;;25.25;17.73;;;-0.60;1.00;;;;;;5051617;28;20488;-52
2023/03/01 01:18:31;;;;;;;28.75;17.95;;;-0.60;1.00;;;;;;5052745;28;20025;-50
2023/03/01 01:20:57;;;;;;;29.20;17.60;;;-0.60;1.00;;;;;;5052787;28;20099;-50
2023/03/01 01:23:23;;;;;;;31.75;18.65;;;-0.60;1.00;;;;;;5051366;28;20075;-49
2023/03/01 01:25:49;;;;;;;27.60;18.30;;;-0.60;1.00;;;;;;5052593;28;20074;-53
2023/03/01 01:28:14;;;;;;;27.17;18.38;;;-0.60;1.00;;;;;;5052297;28;20020;-52
2023/03/01 01:30:40;;;;;;;32.35;19.40;;;-0.70;1.00;;;;;;5052655;28;20021;-51
2023/03/01 01:33:05;;;;;;;33.42;18.95;;;-0.70;1.00;;;;;;5052394;28;20021;-51
2023/03/01 01:35:31;;;;;;;32.88;19.83;;;-0.70;1.00;;;;;;5051067;28;20041;-50
2023/03/01 01:37:57;;;;;;;31.48;19.10;;;-0.70;1.00;;;;;;5052394;28;20025;-52
2023/03/01 01:40:22;;;;;;;33.60;19.45;;;-0.70;1.00;;;;;;5052330;28;20021;-49
2023/03/01 01:42:48;;;;;;;36.42;20.92;;;-0.70;1.00;;;;;;5052515;28;20017;-51
2023/03/01 01:45:35;;;;;;;32.83;19.67;;;-0.70;1.00;;;;;;5052160;28;20072;-50
2023/03/01 01:48:06;;;;;;;31.45;18.10;;;-0.70;1.00;;;;;;5052279;28;20025;-49
2023/03/01 01:50:37;;;;;;;30.88;20.17;;;-0.70;1.00;;;;;;5052009;28;20610;-50
2023/03/01 01:53:10;;;;;;;35.60;19.90;;;-0.80;1.00;;;;;;5052143;28;20025;-49
2023/03/01 01:55:38;;;;;;;32.47;20.02;;;-0.70;1.00;;;;;;5051901;28;20082;-50
2023/03/01 01:58:07;;;;;;;33.28;20.13;;;-0.80;1.00;;;;;;5052206;28;20029;-49
2023/03/01 02:00:33;;;;;;;29.02;20.30;;;-0.90;1.00;;;;;;5051871;28;20013;-49
2023/03/01 02:03:06;;;;;;;33.13;20.48;;;-0.90;1.00;;;;;;5052250;28;20017;-51
2023/03/01 02:05:56;;;;;;;28.48;19.55;;;-0.90;1.00;;;;;;5051764;28;20045;-51
2023/03/01 02:08:25;;;;;;;32.08;21.35;;;-0.90;1.00;;;;;;5051755;28;20028;-50
2023/03/01 02:10:52;;;;;;;32.85;20.00;;;-1.00;1.00;;;;;;5052049;28;20040;-50
2023/03/01 02:13:18;;;;;;;32.53;20.63;;;-1.00;1.00;;;;;;5051769;28;20056;-49
2023/03/01 02:15:44;;;;;;;35.35;21.63;;;-1.00;1.00;;;;;;5051652;28;20052;-49
2023/03/01 02:18:14;;;;;;;36.47;21.45;;;-1.00;1.00;;;;;;5050661;28;20032;-50
2023/03/01 02:21:05;;;;;;;41.03;20.65;;;-1.10;1.00;;;;;;5051729;28;20013;-51
2023/03/01 02:23:31;;;;;;;33.17;20.77;;;-1.10;1.00;;;;;;5051632;28;20092;-50
2023/03/01 02:26:09;;;;;;;34.30;20.42;;;-1.10;1.00;;;;;;5051865;28;20512;-48
2023/03/01 02:28:40;;;;;;;36.35;21.95;;;-1.10;1.00;;;;;;5049642;28;20029;-51
2023/03/01 02:33:53;;;;;;;37.10;20.80;;;-1.10;1.00;;;;;;5050918;28;20040;-50
2023/03/01 02:36:23;;;;;;;35.05;21.70;;;-1.10;1.00;;;;;;5050660;28;20074;-50
2023/03/01 02:38:53;;;;;;;45.05;21.75;;;-1.10;1.00;;;;;;5051150;28;20535;-51
2023/03/01 02:41:21;;;;;;;34.10;21.23;;;-1.20;1.00;;;;;;5050694;28;20025;-49
2023/03/01 02:43:47;;;;;;;33.15;21.02;;;-1.20;1.00;;;;;;5051291;28;20025;-50
2023/03/01 02:46:25;;;;;;;37.85;22.88;;;-1.20;1.00;;;;;;5051525;28;20052;-51
2023/03/01 02:48:57;;;;;;;38.92;23.05;;;-1.20;1.00;;;;;;5051578;28;20051;-52
2023/03/01 02:51:37;;;;;;;37.05;21.10;;;-1.30;1.00;;;;;;5051357;28;20055;-50
2023/03/01 02:54:25;;;;;;;33.58;22.30;;;-1.30;1.00;;;;;;5051423;28;20476;-49
2023/03/01 02:56:51;;;;;;;37.78;22.88;;;-1.30;1.00;;;;;;5051413;28;20115;-51
2023/03/01 02:59:21;;;;;;;40.25;25.17;;;-1.30;1.00;;;;;;5051297;28;20052;-50
2023/03/01 03:01:47;;;;;;;34.08;21.88;;;-1.30;1.00;;;;;;5051325;28;20017;-50
2023/03/01 03:04:18;;;;;;;35.08;21.75;;;-1.30;1.00;;;;;;5051208;28;20045;-49
2023/03/01 03:06:45;;;;;;;41.42;23.50;;;-1.30;1.00;;;;;;5051383;28;20025;-51
2023/03/01 03:09:12;;;;;;;43.80;25.38;;;-1.30;1.00;;;;;;5051404;28;20081;-50
2023/03/01 03:11:40;;;;;;;40.22;24.50;;;-1.30;1.00;;;;;;5051191;28;20025;-49
2023/03/01 03:14:12;;;;;;;40.13;24.02;;;-1.40;1.70;;;;;;5051306;28;20407;-51
2023/03/01 03:16:42;;;;;;;42.40;23.05;;;-1.40;1.00;;;;;;5051328;28;20075;-53
2023/03/01 03:19:07;;;;;;;52.22;25.88;;;-1.40;1.00;;;;;;5051181;28;20029;-52
2023/03/01 03:21:34;;;;;;;41.72;25.17;;;-1.40;1.00;;;;;;5051075;28;20062;-49
2023/03/01 03:24:00;;;;;;;35.30;21.83;;;-1.40;1.00;;;;;;5051150;28;20035;-52
2023/03/01 03:26:26;;;;;;;38.30;24.58;;;-1.50;1.00;;;;;;5050896;28;20053;-51
2023/03/01 03:28:51;;;;;;;42.58;22.65;;;-1.40;1.00;;;;;;5050971;28;20043;-49
2023/03/01 03:31:17;;;;;;;38.83;24.63;;;-1.40;1.00;;;;;;5051050;28;20423;-49
2023/03/01 03:33:43;;;;;;;46.58;25.33;;;-1.40;1.00;;;;;;5051019;28;20550;-49
2023/03/01 03:36:12;;;;;;;40.20;23.60;;;-1.40;1.00;;;;;;5050908;28;20029;-51
2023/03/01 03:38:39;;;;;;;38.88;24.45;;;-1.40;1.00;;;;;;5050864;28;20024;-50
2023/03/01 03:41:08;;;;;;;42.05;25.55;;;-1.40;1.00;;;;;;5051068;28;20079;-50
2023/03/01 03:43:35;;;;;;;46.00;25.85;;;-1.40;1.00;;;;;;5050739;28;20021;-50
2023/03/01 03:46:05;;;;;;;44.63;26.08;;;-1.40;1.00;;;;;;5051004;28;20107;-51
2023/03/01 03:48:34;;;;;;;42.10;23.55;;;-1.40;1.00;;;;;;5050847;28;20044;-50
2023/03/01 03:51:00;;;;;;;39.83;25.58;;;-1.40;1.00;;;;;;5051563;28;20029;-51
2023/03/01 03:53:28;;;;;;;43.55;25.67;;;-1.40;1.00;;;;;;5054580;28;20036;-50
2023/03/01 03:55:54;;;;;;;43.22;25.48;;;-1.50;1.00;;;;;;5054447;28;20074;-49
2023/03/01 03:58:22;;;;;;;45.97;25.73;;;-1.40;1.00;;;;;;5054147;28;20025;-50
2023/03/01 04:00:50;;;;;;;49.80;26.77;;;-1.40;1.00;;;;;;5054543;28;20350;-52
2023/03/01 04:03:18;;;;;;;40.58;24.75;;;-1.40;1.00;;;;;;5054219;28;20016;-53
2023/03/01 04:05:45;;;;;;;42.95;26.52;;;-1.40;1.00;;;;;;5052889;28;20132;-54
2023/03/01 04:08:10;;;;;;;48.88;26.48;;;-1.40;1.00;;;;;;5054437;28;20044;-50
2023/03/01 04:10:41;;;;;;;39.45;25.08;;;-1.50;1.00;;;;;;5054161;28;20029;-49
2023/03/01 04:13:10;;;;;;;44.80;27.77;;;-1.40;1.00;;;;;;5052638;28;20495;-52
2023/03/01 04:15:36;;;;;;;46.03;27.75;;;-1.50;1.00;;;;;;5053938;28;20037;-54
2023/03/01 04:18:02;;;;;;;53.97;28.05;;;-1.50;1.00;;;;;;5054196;28;20101;-51
2023/03/01 04:20:31;;;;;;;45.83;29.10;;;-1.50;1.00;;;;;;5053856;28;20017;-52
2023/03/01 04:23:18;;;;;;;54.72;28.35;;;-1.50;1.00;;;;;;5054057;28;20055;-49
2023/03/01 04:25:55;;;;;;;47.47;28.52;;;-1.50;1.00;;;;;;5053955;28;20103;-53
2023/03/01 04:28:24;;;;;;;47.78;28.20;;;-1.50;1.00;;;;;;5053804;28;20471;-52
2023/03/01 04:30:50;;;;;;;49.00;28.95;;;-1.50;1.00;;;;;;5052485;28;20594;-52
2023/03/01 04:33:16;;;;;;;48.10;28.60;;;-1.50;1.00;;;;;;5053640;28;20025;-51
2023/03/01 04:35:42;;;;;;;49.05;28.77;;;-1.50;1.00;;;;;;5053656;28;20395;-53
2023/03/01 04:38:08;;;;;;;48.47;28.70;;;-1.50;1.00;;;;;;5052439;28;20075;-50
2023/03/01 04:40:34;;;;;;;50.55;27.20;;;-1.50;1.00;;;;;;5053335;28;20025;-53
2023/03/01 04:43:00;;;;;;;46.03;28.27;;;-1.50;1.00;;;;;;5053742;28;20075;-53
2023/03/01 04:45:26;;;;;;;52.28;28.17;;;-1.50;1.00;;;;;;5053422;28;20036;-50
2023/03/01 04:47:54;;;;;;;51.70;29.30;;;-1.50;1.00;;;;;;5053416;28;20021;-50
2023/03/01 04:50:21;;;;;;;49.92;26.17;;;-1.50;1.00;;;;;;5053310;28;20029;-51
2023/03/01 04:52:47;;;;;;;56.03;31.33;;;-1.50;1.00;;;;;;5053501;28;20027;-50
2023/03/01 04:55:13;;;;;;;50.03;30.20;;;-1.60;1.00;;;;;;5053136;28;20080;-51
2023/03/01 04:57:39;;;;;;;47.30;29.10;;;-1.60;5.00;;;;;;5051981;28;20025;-53
2023/03/01 05:00:19;;;;;;;50.60;28.95;;;-1.60;1.00;;;;;;5053233;28;20495;-52
2023/03/01 05:02:53;;;;;;;49.50;27.80;;;-1.60;1.00;;;;;;5052137;28;20104;-50
2023/03/01 05:05:26;;;;;;;;;;;-1.70;1.00;;;;;;5053269;28;20085;-52
2023/03/01 05:08:00;;;;;;;54.77;27.57;;;-1.70;1.00;;;;;;5053320;28;19905;-50
2023/03/01 05:10:29;;;;;;;51.00;29.77;;;-1.70;4.00;;;;;;5051782;28;20052;-53
2023/03/01 05:12:57;;;;;;;50.35;30.05;;;-1.60;1.00;;;;;;5052997;28;20107;-49
2023/03/01 05:15:44;;;;;;;49.03;30.20;;;-1.60;1.00;;;;;;5052761;28;20068;-50
2023/03/01 05:18:11;;;;;;;59.45;31.60;;;-1.60;1.00;;;;;;5052952;28;20112;-52
2023/03/01 05:20:37;;;;;;;47.92;29.75;;;-1.60;1.00;;;;;;5051637;28;20029;-49
2023/03/01 05:23:05;;;;;;;58.53;31.98;;;-1.60;1.00;;;;;;5052835;28;20074;-51
2023/03/01 05:25:32;;;;;;;51.58;30.02;;;-1.60;1.00;;;;;;5052441;28;20044;-51
2023/03/01 05:28:03;;;;;;;55.92;30.48;;;-1.60;1.00;;;;;;5052744;28;20036;-51
2023/03/01 05:30:28;;;;;;;55.67;32.70;;;-1.60;1.00;;;;;;5052662;28;20036;-50
2023/03/01 05:32:55;;;;;;;52.80;31.38;;;-1.60;1.00;;;;;;5052682;28;20473;-54
2023/03/01 05:35:21;;;;;;;56.60;29.73;;;-1.60;1.00;;;;;;5050938;28;20143;-50
2023/03/01 05:37:49;;;;;;;49.97;28.77;;;-1.60;1.00;;;;;;5052490;28;20108;-53
2023/03/01 05:40:20;;;;;;;55.15;28.40;;;-1.60;1.00;;;;;;5052509;28;20104;-51
2023/03/01 05:42:48;;;;;;;63.00;32.05;;;-1.70;3.50;;;;;;5050931;28;20021;-49
2023/03/01 05:45:15;;;;;;;60.97;32.78;;;-1.70;5.30;;;;;;5050988;28;20115;-53
2023/03/01 05:47:44;;;;;;;63.45;34.45;;;-1.70;5.30;;;;;;5052382;28;20112;-53
2023/03/01 05:50:11;;;;;;;56.63;30.35;;;-1.70;6.20;;;;;;5052137;28;20116;-52
2023/03/01 05:52:37;;;;;;;62.90;32.22;;;-1.70;4.90;;;;;;5052164;28;20025;-51
2023/03/01 05:55:03;;;;;;;59.00;32.05;;;-1.70;2.40;;;;;;5052063;28;20361;-52
2023/03/01 05:57:29;;;;;;;57.97;31.23;;;-1.70;1.10;;;;;;5051995;28;20013;-54
2023/03/01 05:59:55;;;;;;;66.88;32.92;;;-1.60;2.10;;;;;;5047173;28;20037;-51
2023/03/01 06:02:20;;;;;;;59.20;31.20;;;-1.60;1.90;;;;;;5050046;28;20059;-51
2023/03/01 06:04:46;;;;;;;57.47;33.10;;;-1.60;1.00;;;;;;5051716;28;20048;-52
2023/03/01 06:07:12;;;;;;;56.70;31.33;;;-1.60;1.00;;;;;;5051571;28;20052;-52
2023/03/01 06:09:37;;;;;;;61.90;31.98;;;-1.60;1.00;;;;;;5042906;28;20104;-53
2023/03/01 06:12:03;;;;;;;52.97;30.83;;;-1.60;1.00;;;;;;5032030;28;20052;-51
2023/03/01 06:14:29;;;;;;;48.80;30.48;;;-1.50;1.00;;;;;;5030336;28;20163;-50
2023/03/01 06:16:54;;;;;;;59.97;33.42;;;-1.50;1.00;;;;;;5032856;28;20120;-51
2023/03/01 06:19:20;;;;;;;59.33;33.22;;;-1.50;1.00;;;;;;5031786;28;20442;-55
2023/03/01 06:21:45;;;;;;;62.83;32.72;;;-1.40;1.00;;;;;;5031830;28;20053;-50
2023/03/01 06:24:11;;;;;;;52.60;31.67;;;-1.40;1.00;;;;;;5030337;28;20112;-51
2023/03/01 06:26:37;;;;;;;62.28;33.88;;;-1.40;1.00;;;;;;5031694;28;20030;-51
2023/03/01 06:29:02;;;;;;;52.92;31.40;;;-1.50;1.00;;;;;;5031840;28;20022;-54
2023/03/01 06:31:28;;;;;;;60.20;32.38;;;-1.40;1.00;;;;;;5031573;28;20021;-53
2023/03/01 06:33:54;;;;;;;59.67;33.30;;;-1.40;1.00;;;;;;5046867;28;20029;-52
2023/03/01 06:36:20;;;;;;;64.25;33.47;;;-1.40;1.00;;;;;;5051384;28;20232;-54
2023/03/01 06:38:46;;;;;;;63.67;32.50;;;-1.40;1.00;;;;;;5051458;28;20013;-53
2023/03/01 06:41:12;;;;;;;57.05;33.35;;;-1.40;2.90;;;;;;5051544;28;20028;-53
2023/03/01 06:43:38;;;;;;;56.30;32.13;;;-1.40;4.20;;;;;;5051380;28;20021;-50
2023/03/01 06:46:06;;;;;;;57.60;34.42;;;-1.40;1.00;;;;;;5051386;28;20031;-54
2023/03/01 06:48:32;;;;;;;58.63;33.17;;;-1.30;1.00;;;;;;5051475;28;20033;-50
2023/03/01 06:51:00;;;;;;;52.70;31.42;;;-1.20;1.00;;;;;;5051031;28;20028;-54
2023/03/01 06:53:27;;;;;;;51.88;31.80;;;-1.20;1.00;;;;;;5051126;28;20666;-51
2023/03/01 06:56:01;;;;;;;61.90;33.22;;;-1.20;1.00;;;;;;5051048;28;20029;-51
2023/03/01 06:58:27;;;;;;;62.50;32.92;;;-1.20;1.00;;;;;;5051377;28;20025;-51
2023/03/01 07:00:52;;;;;;;59.65;32.65;;;-1.20;1.00;;;;;;5051183;28;20025;-52
2023/03/01 07:03:18;;;;;;;61.70;33.78;;;-1.10;1.00;;;;;;5051006;28;20416;-52
2023/03/01 07:05:44;;;;;;;56.63;33.70;;;-1.00;1.00;;;;;;5050960;28;20103;-51
2023/03/01 07:08:10;;;;;;;58.17;32.75;;;-1.00;1.00;;;;;;5050980;28;20044;-54
2023/03/01 07:10:36;;;;;;;58.47;34.00;;;-1.00;1.00;;;;;;5051012;28;20017;-52
2023/03/01 07:13:01;;;;;;;57.10;32.08;;;-1.00;1.00;;;;;;5051167;28;20419;-53
2023/03/01 07:15:28;;;;;;;66.55;34.33;;;-0.90;1.00;;;;;;5050138;28;20061;-50
2023/03/01 07:17:54;;;;;;;59.47;33.45;;;-0.80;1.00;;;;;;5031149;28;20025;-50
2023/03/01 07:20:24;;;;;;;57.47;32.47;;;-0.80;1.00;;;;;;5030857;28;20488;-53
2023/03/01 07:22:51;;;;;;;58.65;32.58;;;-0.80;1.00;;;;;;5029991;28;20109;-53
2023/03/01 07:25:17;;;;;;;54.80;32.67;;;-0.70;1.00;;;;;;5047678;28;20013;-53
2023/03/01 07:27:42;;;;;;;60.03;33.33;;;-0.70;1.00;;;;;;5054633;28;20112;-54
2023/03/01 07:30:09;;;;;;;61.85;34.70;;;-0.70;1.00;;;;;;5055015;28;20032;-54
2023/03/01 07:32:34;;;;;;;62.50;34.78;;;-0.60;1.00;;;;;;5054513;28;20025;-53
2023/03/01 07:35:00;;;;;;;50.88;30.10;;;-0.60;1.00;;;;;;5054801;28;20029;-51
2023/03/01 07:37:26;;;;;;;59.83;36.33;;;-0.60;1.00;;;;;;5053091;28;20086;-53
2023/03/01 07:43:14;;;;;;;58.00;33.42;;;-0.50;1.00;;;;;;5054136;28;20096;-53
2023/03/01 07:45:39;;;;;;;61.65;35.25;;;-0.40;1.00;;;;;;5054017;28;20524;-54
2023/03/01 07:48:05;;;;;;;62.72;34.75;;;-0.40;1.00;;;;;;5054295;28;20100;-52
2023/03/01 07:50:30;;;;;;;61.13;31.92;;;-0.30;1.00;;;;;;5054080;28;20053;-52
2023/03/01 07:53:00;;;;;;;55.38;33.72;;;-0.30;1.00;;;;;;5053837;28;20028;-52
2023/03/01 07:55:25;;;;;;;59.08;32.72;;;-0.20;1.00;;;;;;5054337;28;20112;-51
2023/03/01 07:57:51;;;;;;;61.08;34.42;;;-0.20;1.00;;;;;;5054228;28;20508;-53
2023/03/01 08:00:17;;;;;;;56.45;34.30;;;-0.10;1.00;;;;;;5054015;28;20025;-51
2023/03/01 08:02:43;;;;;;;54.83;32.03;;;-0.10;1.00;;;;;;5053839;28;20510;-54
2023/03/01 08:05:10;;;;;;;54.78;33.40;;;0.10;1.00;;;;;;5054096;28;20048;-52
2023/03/01 08:07:35;;;;;;;52.63;31.92;;;0.10;1.00;;;;;;5054008;28;20104;-53
2023/03/01 08:10:01;;;;;;;59.53;33.22;;;0.20;1.00;;;;;;5054068;28;20104;-54
2023/03/01 08:12:27;;;;;;;54.15;32.47;;;0.30;1.00;;;;;;5053919;28;20640;-51
2023/03/01 08:14:53;;;;;;;59.10;32.88;;;0.40;1.00;;;;;;5053968;28;20112;-51
2023/03/01 08:17:19;;;;;;;55.83;32.10;;;0.40;1.00;;;;;;5053750;28;20105;-50
2023/03/01 08:19:45;;;;;;;55.42;31.50;;;0.40;1.00;;;;;;5053986;28;20036;-51
2023/03/01 08:22:11;;;;;;;55.55;33.65;;;0.50;1.00;;;;;;5053929;28;20021;-50
2023/03/01 08:24:37;;;;;;;55.63;31.60;;;0.60;1.00;;;;;;5053841;28;20091;-50
2023/03/01 08:27:02;;;;;;;60.70;32.03;;;0.60;1.00;;;;;;5053691;28;20427;-50
2023/03/01 08:29:31;;;;;;;56.65;31.85;;;0.80;1.00;;;;;;5052395;28;20492;-50
2023/03/01 08:31:57;;;;;;;52.92;31.92;;;1.00;1.00;;;;;;5053635;28;20086;-50
2023/03/01 08:34:22;;;;;;;55.53;33.33;;;1.10;1.00;;;;;;5053427;28;20021;-53
2023/03/01 08:36:49;;;;;;;58.28;30.25;;;1.30;1.00;;;;;;5053434;28;20452;-52
2023/03/01 08:39:18;;;;;;;52.03;30.33;;;1.40;99.90;;;;;;5053547;28;20056;-54
2023/03/01 08:41:43;;;;;;;55.80;34.33;;;1.40;99.90;;;;;;5053508;28;20049;-51
2023/03/01 08:44:11;;;;;;;54.22;34.45;;;1.40;99.90;;;;;;5053341;28;20057;-52
2023/03/01 08:46:40;;;;;;;60.28;32.95;;;1.40;99.90;;;;;;5053215;28;20369;-50
2023/03/01 08:49:13;;;;;;;55.58;31.70;;;1.50;99.90;;;;;;5053339;28;20017;-51
2023/03/01 08:51:40;;;;;;;53.58;29.98;;;1.50;99.90;;;;;;5052976;28;20108;-50
2023/03/01 08:54:14;;;;;;;53.70;30.65;;;1.50;99.90;;;;;;5053395;28;20032;-51
2023/03/01 08:56:41;;;;;;;49.15;30.73;;;1.50;99.90;;;;;;5053143;28;20025;-50
2023/03/01 08:59:07;;;;;;;50.97;29.83;;;1.50;99.90;;;;;;5053082;28;20021;-51
2023/03/01 09:01:33;;;;;;;49.63;32.33;;;1.80;99.90;;;;;;5052485;28;20070;-51
2023/03/01 09:03:59;;;;;;;50.95;30.00;;;1.70;99.90;;;;;;5052802;28;20033;-51
2023/03/01 09:06:25;;;;;;;51.03;30.95;;;1.90;99.90;;;;;;5052961;28;20078;-50
2023/03/01 09:08:51;;;;;;;56.97;33.63;;;1.90;99.90;;;;;;5052926;28;20521;-51
2023/03/01 09:11:20;;;;;;;59.70;32.90;;;2.10;99.90;;;;;;5052852;28;20035;-50
2023/03/01 09:13:47;;;;;;;57.20;30.88;;;2.20;99.90;;;;;;5052791;28;20028;-55
2023/03/01 09:16:17;;;;;;;48.20;29.67;;;2.30;99.90;;;;;;5051412;28;20037;-52
2023/03/01 09:18:43;;;;;;;61.63;32.33;;;2.30;99.90;;;;;;5043946;28;20028;-51
2023/03/01 09:21:16;;;;;;;52.20;32.75;;;2.50;41.00;;;;;;5052681;28;20017;-51
2023/03/01 09:23:44;;;;;;;62.78;37.35;;;2.40;1.00;;;;;;5052064;28;20024;-49
2023/03/01 09:26:12;;;;;;;56.30;30.58;;;2.40;1.00;;;;;;5052559;28;20043;-53
2023/03/01 09:28:40;;;;;;;56.80;31.00;;;2.70;1.00;;;;;;5052486;28;20032;-51
2023/03/01 09:31:06;;;;;;;52.83;30.67;;;2.70;1.00;;;;;;5052797;28;20135;-52
2023/03/01 09:33:32;;;;;;;49.83;30.00;;;3.00;1.00;;;;;;5052278;28;20107;-50
2023/03/01 09:36:03;;;;;;;54.42;31.55;;;3.10;1.00;;;;;;5052020;28;20021;-51
2023/03/01 09:38:29;;;;;;;48.80;30.08;;;3.10;1.00;;;;;;5052114;28;20369;-50
2023/03/01 09:40:55;;;;;;;48.60;30.98;;;3.20;1.00;;;;;;5052307;28;20514;-52
2023/03/01 09:43:23;;;;;;;43.88;30.10;;;3.30;99.90;;;;;;5052184;28;20053;-54
2023/03/01 09:45:52;;;;;;;54.10;30.45;;;3.40;99.90;;;;;;5052513;28;20055;-52
2023/03/01 09:48:24;;;;;;;48.75;28.08;;;3.50;99.90;;;;;;5051823;28;20025;-51
2023/03/01 09:50:51;;;;;;;49.35;29.10;;;3.70;99.90;;;;;;5052325;28;20120;-51
2023/03/01 09:53:19;;;;;;;42.40;28.17;;;3.90;78.60;;;;;;5051929;28;20132;-51
2023/03/01 09:56:12;;;;;;;50.35;27.58;;;3.90;1.00;;;;;;5051966;28;20036;-51
2023/03/01 09:59:08;;;;;;;46.78;29.05;;;3.90;1.00;;;;;;5051939;28;20384;-52
2023/03/01 10:01:53;;;;;;;46.88;26.98;;;3.90;20.50;;;;;;5051828;28;20017;-51
2023/03/01 10:04:43;;;;;;;50.92;29.08;;;4.40;1.00;;;;;;5051667;28;20044;-53
2023/03/01 10:07:40;;;;;;;50.60;28.55;;;4.40;99.90;;;;;;5051937;28;20074;-50
2023/03/01 10:10:07;;;;;;;43.88;26.40;;;4.40;1.00;;;;;;5051929;28;20108;-52
2023/03/01 10:12:40;;;;;;;45.88;27.38;;;4.70;99.90;;;;;;5051709;28;20160;-52
2023/03/01 10:15:06;;;;;;;41.17;27.10;;;4.50;99.90;;;;;;5051699;28;20087;-51
2023/03/01 10:17:46;;;;;;;53.80;27.85;;;4.80;99.90;;;;;;5051461;28;20032;-51
2023/03/01 10:20:19;;;;;;;44.33;29.02;;;5.00;99.90;;;;;;5051763;28;20020;-50
2023/03/01 10:22:50;;;;;;;44.88;27.10;;;5.30;99.90;;;;;;5051891;28;20378;-50
2023/03/01 10:25:23;;;;;;;39.55;25.17;;;5.50;99.90;;;;;;5051495;28;20025;-52
2023/03/01 10:27:54;;;;;;;37.33;25.13;;;5.70;99.90;;;;;;5051455;28;20029;-50
2023/03/01 10:30:43;;;;;;;35.33;23.23;;;6.00;25.60;;;;;;5049780;28;20032;-52
2023/03/01 10:33:25;;;;;;;41.08;26.35;;;6.10;1.00;;;;;;5050013;28;20021;-50
2023/03/01 10:35:51;;;;;;;39.80;23.98;;;5.80;1.00;;;;;;5047692;28;20186;-51
2023/03/01 10:38:17;;;;;;;38.33;23.02;;;6.20;1.00;;;;;;5031558;28;20389;-50
2023/03/01 10:40:54;;;;;;;35.03;22.30;;;6.60;1.00;;;;;;5031568;28;20018;-54
2023/03/01 10:43:20;;;;;;;35.35;22.83;;;8.10;70.00;;;;;;5037841;28;20099;-51
2023/03/01 10:45:46;;;;;;;32.85;21.63;;;8.80;73.60;;;;;;5063793;28;20025;-54
2023/03/01 10:48:25;;;;;;;36.78;23.17;;;9.70;44.70;;;;;;5071331;28;20040;-52
2023/03/01 10:51:17;;;;;;;38.20;21.70;;;10.60;99.90;;;;;;5071457;28;20120;-50
2023/03/01 10:53:48;;;;;;;31.67;22.05;;;10.80;1.00;;;;;;5071396;28;20059;-52
2023/03/01 10:56:15;;;;;;;32.97;21.63;;;10.90;1.00;;;;;;5071468;28;20028;-50
2023/03/01 10:59:04;;;;;;;41.95;22.13;;;10.50;99.90;;;;;;5071182;28;20036;-51
2023/03/01 11:01:35;;;;;;;31.15;22.50;;;10.90;1.00;;;;;;5056884;28;20128;-54
2023/03/01 11:04:06;;;;;;;35.17;21.17;;;12.20;99.90;;;;;;5055332;28;20029;-51
2023/03/01 11:06:36;;;;;;;28.70;19.75;;;12.70;99.90;;;;;;5055344;28;20020;-53
2023/03/01 11:09:18;;;;;;;29.67;20.95;;;13.10;99.90;;;;;;5055408;28;20120;-53
2023/03/01 11:11:45;;;;;;;33.42;21.20;;;13.20;1.00;;;;;;5055042;28;20017;-52
2023/03/01 11:14:21;;;;;;;33.28;20.75;;;13.90;99.90;;;;;;5055061;28;20025;-53
2023/03/01 11:16:49;;;;;;;26.67;19.58;;;14.30;99.90;;;;;;5054517;28;20031;-54
2023/03/01 11:19:20;;;;;;;30.75;20.27;;;13.70;1.00;;;;;;5034862;28;20025;-49
2023/03/01 11:22:04;;;;;;;24.80;18.45;;;13.90;99.90;;;;;;5035100;28;20026;-51
2023/03/01 11:24:44;;;;;;;25.90;18.48;;;13.70;1.00;;;;;;5034825;28;20036;-51
2023/03/01 11:27:22;;;;;;;33.15;20.02;;;14.70;99.90;;;;;;5034768;28;20132;-54
2023/03/01 11:30:09;;;;;;;32.60;22.02;;;13.60;1.00;;;;;;5035087;28;20104;-51
2023/03/01 11:32:42;;;;;;;29.23;19.17;;;13.40;99.90;;;;;;5034757;28;20029;-51
2023/03/01 11:35:08;;;;;;;;;;;13.60;99.90;;;;;;5046608;28;20020;-54
2023/03/01 11:38:35;;;;;;;28.13;18.45;;;13.60;99.90;;;;;;5054707;28;20419;-52
2023/03/01 11:41:02;;;;;;;26.25;18.63;;;14.10;1.00;;;;;;5013616;28;20071;-51
2023/03/01 11:43:37;;;;;;;28.90;19.48;;;14.60;99.90;;;;;;5054605;28;20049;-51
2023/03/01 11:46:15;;;;;;;26.58;19.35;;;15.80;99.90;;;;;;5053340;28;20021;-52
2023/03/01 11:48:52;;;;;;;27.85;19.77;;;15.70;1.00;;;;;;5054562;28;20025;-54
2023/03/01 11:51:37;;;;;;;33.88;19.60;;;15.70;1.00;;;;;;5054234;28;20028;-54
2023/03/01 11:54:21;;;;;;;30.52;20.55;;;14.70;99.90;;;;;;5054571;28;20021;-52
2023/03/01 11:57:00;;;;;;;;;;;14.40;1.00;;;;;;5054696;28;20112;-53
2023/03/01 11:59:28;;;;;;;33.65;19.65;;;15.50;1.00;;;;;;5054907;28;20325;-52
2023/03/01 12:02:16;;;;;;;43.85;21.98;;;14.90;99.90;;;;;;5054018;28;20031;-54
2023/03/01 12:05:19;;;;;;;30.20;19.92;;;15.10;99.90;;;;;;5054182;28;20432;-51
2023/03/01 12:07:57;;;;;;;28.10;18.27;;;15.40;99.90;;;;;;5030670;28;20660;-52
2023/03/01 12:10:30;;;;;;;59.72;21.67;;;15.90;99.90;;;;;;5053925;28;20047;-51
2023/03/01 12:13:14;;;;;;;29.98;19.98;;;16.20;1.00;;;;;;5053485;28;20016;-51
2023/03/01 12:16:34;;;;;;;33.85;19.25;;;15.30;99.90;;;;;;5053841;28;20425;-52
2023/03/01 12:19:25;;;;;;;30.75;19.33;;;15.30;13.40;;;;;;5029438;28;20067;-51
2023/03/01 12:22:13;;;;;;;28.05;17.42;;;15.30;1.00;;;;;;5054004;28;20021;-50
2023/03/01 12:25:12;;;;;;;32.53;19.35;;;16.10;1.00;;;;;;5053573;28;20029;-52
2023/03/01 12:28:22;;;;;;;32.22;18.23;;;16.60;99.90;;;;;;5041856;28;20053;-50
2023/03/01 12:31:27;;;;;;;21.45;17.63;;;15.30;99.90;;;;;;5053558;28;20644;-50
2023/03/01 12:34:20;;;;;;;25.10;17.58;;;15.30;1.00;;;;;;5053634;28;20024;-51
2023/03/01 12:36:57;;;;;;;26.02;17.67;;;15.70;1.00;;;;;;5053490;28;20029;-55
2023/03/01 12:39:25;;;;;;;33.55;18.88;;;16.50;99.90;;;;;;5053207;28;20026;-49
2023/03/01 12:42:01;;;;;;;26.48;18.98;;;17.30;1.00;;;;;;5053692;28;20021;-51
2023/03/01 12:44:38;;;;;;;29.30;18.23;;;17.20;99.90;;;;;;5053407;28;20043;-52
2023/03/01 12:47:07;;;;;;;28.58;19.75;;;17.50;99.90;;;;;;5053558;28;20032;-54
2023/03/01 12:49:45;;;;;;;25.17;16.50;;;17.10;99.90;;;;;;5053436;28;20029;-50
2023/03/01 12:52:10;;;;;;;25.75;18.73;;;17.70;99.90;;;;;;5053373;28;20033;-49
2023/03/01 12:54:36;;;;;;;23.17;17.45;;;18.20;99.90;;;;;;5053107;28;20094;-52
2023/03/01 12:57:36;;;;;;;26.50;17.92;;;17.50;99.90;;;;;;5053375;28;20033;-50
2023/03/01 13:00:23;;;;;;;28.80;17.55;;;17.80;99.90;;;;;;5049691;28;20036;-50
2023/03/01 13:03:16;;;;;;;25.38;17.50;;;18.70;99.90;;;;;;5053380;28;20579;-52
2023/03/01 13:06:04;;;;;;;24.95;17.83;;;18.70;1.00;;;;;;5053153;28;20045;-52